Time;durP1;ratioP1;P1;durP2;ratioP2;P2;SDS_P1;SDS_P2;PMS_P1;PMS_P2;Temp;Humidity;BMP_temperature;BMP_pressure;BME280_temperature;BME280_humidity;BME280_pressure;Samples;Min_cycle;Max_cycle;Signal;HPM_P1;HPM_P2
2022/11/29 00:02:15;;;;;;;14.20;11.57;;;13.40;65.40;;;;;;5023438;28;20253;-58
2022/11/29 00:04:41;;;;;;;16.87;12.03;;;13.30;65.10;;;;;;5029096;28;20198;-58
2022/11/29 00:07:06;;;;;;;15.73;11.33;;;13.30;65.30;;;;;;5029932;28;20286;-58
2022/11/29 00:09:32;;;;;;;15.37;11.70;;;13.30;65.30;;;;;;5028045;28;20194;-58
2022/11/29 00:12:13;;;;;;;15.20;11.63;;;13.30;65.20;;;;;;5030338;28;20198;-58
2022/11/29 00:14:39;;;;;;;14.17;11.70;;;13.30;65.20;;;;;;5025208;28;20778;-57
2022/11/29 00:17:05;;;;;;;18.90;12.40;;;13.30;65.20;;;;;;5029702;28;20474;-58
2022/11/29 00:19:32;;;;;;;14.90;12.20;;;13.10;65.60;;;;;;5028740;28;20440;-58
2022/11/29 00:21:59;;;;;;;13.40;12.00;;;13.10;65.80;;;;;;5025631;28;20707;-58
2022/11/29 00:24:24;;;;;;;13.20;11.73;;;13.20;66.00;;;;;;5026245;28;20534;-58
2022/11/29 00:26:50;;;;;;;13.30;11.87;;;13.20;65.90;;;;;;5028681;28;20642;-58
2022/11/29 00:29:16;;;;;;;14.33;11.70;;;13.20;65.70;;;;;;5028224;28;20198;-58
2022/11/29 00:31:42;;;;;;;14.90;12.07;;;13.20;65.60;;;;;;5027457;28;20275;-58
2022/11/29 00:34:10;;;;;;;17.97;12.37;;;13.20;65.70;;;;;;5026758;28;20472;-57
2022/11/29 00:36:36;;;;;;;13.57;12.10;;;13.20;66.40;;;;;;5032727;28;20784;-58
2022/11/29 00:39:03;;;;;;;18.10;12.13;;;13.20;65.60;;;;;;5033957;28;20447;-58
2022/11/29 00:41:29;;;;;;;13.70;12.03;;;13.20;65.60;;;;;;5020055;28;20990;-58
2022/11/29 00:43:55;;;;;;;15.50;12.03;;;13.20;65.40;;;;;;5037476;28;20443;-57
2022/11/29 00:46:20;;;;;;;13.70;11.40;;;13.30;65.40;;;;;;5031449;28;20303;-58
2022/11/29 00:48:46;;;;;;;12.57;11.27;;;13.30;65.30;;;;;;5040995;28;20196;-58
2022/11/29 00:51:12;;;;;;;14.30;11.10;;;13.30;65.20;;;;;;5032348;28;20521;-58
2022/11/29 00:53:38;;;;;;;14.43;12.03;;;13.30;65.30;;;;;;5022467;28;20229;-58
2022/11/29 00:56:05;;;;;;;14.00;11.73;;;13.30;65.30;;;;;;5022271;28;20212;-58
2022/11/29 00:58:31;;;;;;;14.93;11.93;;;13.20;65.50;;;;;;5026234;28;20205;-58
2022/11/29 01:00:57;;;;;;;14.83;11.73;;;13.20;65.70;;;;;;5028088;28;20796;-58
2022/11/29 01:03:23;;;;;;;15.83;11.43;;;13.20;65.70;;;;;;5033758;28;20445;-58
2022/11/29 01:05:49;;;;;;;15.63;11.40;;;13.10;65.80;;;;;;5028425;28;20193;-58
2022/11/29 01:08:15;;;;;;;16.97;11.67;;;13.10;66.10;;;;;;5024232;28;20826;-58
2022/11/29 01:10:41;;;;;;;15.77;12.47;;;13.20;66.10;;;;;;5014374;28;20459;-58
2022/11/29 01:13:07;;;;;;;14.87;12.50;;;13.20;66.00;;;;;;5037526;28;20188;-58
2022/11/29 01:15:32;;;;;;;13.47;11.67;;;13.20;65.90;;;;;;5032516;28;20436;-58
2022/11/29 01:17:58;;;;;;;14.07;12.57;;;13.30;65.80;;;;;;5051312;28;20188;-58
2022/11/29 01:20:24;;;;;;;14.20;11.80;;;13.30;65.90;;;;;;5029335;28;20201;-58
2022/11/29 01:22:50;;;;;;;15.17;11.50;;;13.30;65.90;;;;;;5030036;28;20588;-59
2022/11/29 01:25:15;;;;;;;14.53;11.97;;;13.30;66.00;;;;;;5031550;28;20443;-58
2022/11/29 01:27:41;;;;;;;14.40;11.70;;;13.30;66.10;;;;;;5018158;28;20255;-58
2022/11/29 01:30:08;;;;;;;13.07;11.70;;;13.30;65.80;;;;;;5029165;28;20331;-58
2022/11/29 01:32:34;;;;;;;14.37;11.80;;;13.30;65.90;;;;;;5028244;28;20270;-58
2022/11/29 01:35:00;;;;;;;16.00;12.17;;;13.30;66.00;;;;;;5020941;28;20491;-58
2022/11/29 01:37:29;;;;;;;14.40;12.13;;;13.30;66.50;;;;;;5038648;28;20446;-58
2022/11/29 01:39:55;;;;;;;15.23;13.27;;;13.30;66.30;;;;;;5029710;28;20506;-58
2022/11/29 01:42:20;;;;;;;17.90;14.00;;;13.30;66.40;;;;;;5028325;28;22131;-58
2022/11/29 01:44:48;;;;;;;16.20;12.90;;;13.30;66.20;;;;;;5033842;28;20227;-59
2022/11/29 01:47:16;;;;;;;17.13;12.10;;;13.30;66.10;;;;;;5026247;28;20229;-57
2022/11/29 01:49:44;;;;;;;20.00;13.47;;;13.30;66.00;;;;;;5029290;28;20449;-58
2022/11/29 01:52:20;;;;;;;18.37;12.90;;;13.30;66.20;;;;;;5026245;28;20446;-58
2022/11/29 01:54:50;;;;;;;18.23;13.23;;;13.30;66.30;;;;;;5026305;28;20517;-58
2022/11/29 01:57:17;;;;;;;15.20;12.90;;;13.30;66.30;;;;;;5027672;28;20441;-58
2022/11/29 01:59:47;;;;;;;17.13;13.50;;;13.30;66.10;;;;;;5030392;28;20427;-58
2022/11/29 02:02:16;;;;;;;16.77;12.50;;;13.30;66.10;;;;;;5030566;28;20868;-58
2022/11/29 02:04:44;;;;;;;14.37;11.83;;;13.30;66.00;;;;;;5029853;28;20452;-58
2022/11/29 02:07:10;;;;;;;19.87;13.97;;;13.30;66.00;;;;;;5028415;28;21032;-58
2022/11/29 02:09:35;;;;;;;18.37;13.03;;;13.30;66.00;;;;;;5028933;28;20440;-58
2022/11/29 02:12:39;;;;;;;15.50;11.87;;;13.30;66.20;;;;;;5028132;28;20196;-58
2022/11/29 02:15:17;;;;;;;14.97;12.23;;;13.30;66.30;;;;;;4990825;28;20218;-58
2022/11/29 02:18:06;;;;;;;15.60;12.20;;;13.40;66.30;;;;;;5026783;28;20538;-58
2022/11/29 02:20:37;;;;;;;16.47;12.13;;;13.30;66.20;;;;;;5028589;28;20443;-58
2022/11/29 02:23:38;;;;;;;16.07;11.67;;;13.30;66.10;;;;;;5021092;28;20950;-58
2022/11/29 02:26:33;;;;;;;19.77;14.40;;;13.30;66.00;;;;;;5026023;28;20478;-58
2022/11/29 02:29:40;;;;;;;13.73;12.20;;;13.40;66.10;;;;;;5027504;28;20487;-58
2022/11/29 02:32:32;;;;;;;16.20;12.07;;;13.30;65.90;;;;;;5026341;28;20459;-58
2022/11/29 02:35:14;;;;;;;14.07;12.30;;;13.40;65.90;;;;;;5020361;28;20479;-58
2022/11/29 02:37:48;;;;;;;15.80;13.37;;;13.30;65.90;;;;;;5031394;28;20451;-58
2022/11/29 02:40:38;;;;;;;15.43;11.70;;;13.30;66.10;;;;;;5028045;28;20466;-58
2022/11/29 02:43:24;;;;;;;15.00;12.30;;;13.30;66.30;;;;;;5036952;28;20507;-58
2022/11/29 02:45:58;;;;;;;13.47;11.77;;;13.30;66.20;;;;;;5029145;28;20452;-58
2022/11/29 02:48:51;;;;;;;15.37;12.37;;;13.30;66.30;;;;;;5027094;28;20492;-58
2022/11/29 02:51:28;;;;;;;13.87;12.43;;;13.30;66.30;;;;;;5029545;28;20939;-58
2022/11/29 02:54:25;;;;;;;14.53;12.67;;;13.30;66.50;;;;;;5033650;28;20801;-58
2022/11/29 02:56:58;;;;;;;12.67;11.37;;;13.30;66.60;;;;;;5025765;28;20530;-58
2022/11/29 03:00:01;;;;;;;13.90;11.20;;;13.30;66.60;;;;;;5041830;28;20552;-58
2022/11/29 03:02:51;;;;;;;14.93;12.40;;;13.30;66.50;;;;;;5028297;28;20452;-58
2022/11/29 03:05:26;;;;;;;13.33;11.00;;;13.20;66.40;;;;;;5024681;28;20447;-58
2022/11/29 03:08:03;;;;;;;13.63;11.40;;;13.30;66.70;;;;;;5032133;28;20966;-58
2022/11/29 03:10:31;;;;;;;18.40;11.20;;;13.30;66.60;;;;;;5030913;28;20443;-58
2022/11/29 03:12:58;;;;;;;13.20;11.80;;;13.30;66.80;;;;;;5032524;28;20459;-58
2022/11/29 03:15:37;;;;;;;14.30;11.40;;;13.30;67.00;;;;;;5031147;28;20439;-57
2022/11/29 03:18:33;;;;;;;13.60;11.47;;;13.30;66.90;;;;;;5024911;28;20479;-57
2022/11/29 03:21:30;;;;;;;15.33;12.47;;;13.30;66.70;;;;;;5025944;28;20792;-57
2022/11/29 03:24:06;;;;;;;14.30;11.87;;;13.40;66.70;;;;;;5032809;28;20519;-58
2022/11/29 03:26:34;;;;;;;11.93;10.73;;;13.40;66.80;;;;;;5023645;28;20519;-58
2022/11/29 03:29:19;;;;;;;15.60;12.63;;;13.40;66.70;;;;;;5029232;28;20440;-57
2022/11/29 03:32:12;;;;;;;14.33;12.67;;;13.40;66.80;;;;;;5031544;28;20455;-57
2022/11/29 03:34:43;;;;;;;16.13;12.40;;;13.40;66.70;;;;;;5030722;28;20547;-58
2022/11/29 03:37:17;;;;;;;13.23;11.83;;;13.40;66.80;;;;;;5027320;28;20526;-58
2022/11/29 03:40:04;;;;;;;13.90;11.90;;;13.40;67.10;;;;;;5030967;28;21173;-58
2022/11/29 03:42:59;;;;;;;13.83;11.50;;;13.40;67.20;;;;;;5028823;28;20452;-58
2022/11/29 03:45:49;;;;;;;12.70;11.17;;;13.40;67.30;;;;;;5026314;28;20445;-58
2022/11/29 03:48:26;;;;;;;12.87;11.57;;;13.40;67.30;;;;;;5031516;28;20620;-58
2022/11/29 03:51:00;;;;;;;16.30;13.00;;;13.40;67.10;;;;;;5019517;28;20462;-58
2022/11/29 03:53:35;;;;;;;16.63;12.10;;;13.40;67.10;;;;;;5025497;28;20471;-58
2022/11/29 03:56:21;;;;;;;14.53;11.90;;;13.50;67.10;;;;;;5030612;28;20463;-57
2022/11/29 03:58:46;;;;;;;12.63;11.33;;;13.50;67.00;;;;;;5029940;28;20432;-58
2022/11/29 04:01:30;;;;;;;13.30;11.90;;;13.50;67.00;;;;;;5031500;28;20455;-57
2022/11/29 04:03:56;;;;;;;13.77;11.33;;;13.40;66.90;;;;;;5030676;28;20699;-58
2022/11/29 04:07:07;;;;;;;12.50;11.20;;;13.40;67.00;;;;;;5030803;28;20471;-58
2022/11/29 04:10:27;;;;;;;12.37;10.67;;;13.40;67.20;;;;;;5028274;28;20197;-58
2022/11/29 04:13:17;;;;;;;12.40;11.07;;;13.40;67.40;;;;;;4968845;28;20450;-58
2022/11/29 04:16:30;;;;;;;13.27;11.87;;;13.40;67.80;;;;;;5027575;28;20467;-58
2022/11/29 04:19:28;;;;;;;13.07;11.77;;;13.30;67.90;;;;;;5029614;28;20436;-58
2022/11/29 04:22:24;;;;;;;14.27;11.67;;;13.40;68.10;;;;;;5031361;28;20445;-58
2022/11/29 04:25:16;;;;;;;14.03;12.50;;;13.40;68.40;;;;;;5025577;28;20447;-58
2022/11/29 04:28:02;;;;;;;14.90;12.60;;;13.40;68.30;;;;;;5029760;28;20968;-57
2022/11/29 04:30:51;;;;;;;14.37;12.63;;;13.40;68.10;;;;;;5030253;28;20439;-57
2022/11/29 04:33:33;;;;;;;15.57;12.47;;;13.50;67.90;;;;;;5025597;28;20916;-57
2022/11/29 04:36:31;;;;;;;14.10;12.53;;;13.50;67.90;;;;;;5018179;28;20638;-58
2022/11/29 04:39:07;;;;;;;14.83;11.93;;;13.50;67.90;;;;;;5025615;28;20466;-57
2022/11/29 04:41:40;;;;;;;18.73;15.27;;;13.50;67.90;;;;;;5031701;28;20498;-58
2022/11/29 04:45:04;;;;;;;19.30;15.67;;;13.40;67.80;;;;;;5030296;28;20443;-58
2022/11/29 04:47:50;;;;;;;17.03;14.20;;;13.40;67.60;;;;;;4985517;28;20549;-58
2022/11/29 04:50:46;;;;;;;14.60;13.10;;;13.40;67.80;;;;;;5024155;28;20455;-57
2022/11/29 04:53:38;;;;;;;14.00;12.60;;;13.40;67.90;;;;;;5026631;28;20574;-57
2022/11/29 04:56:17;;;;;;;15.43;11.60;;;13.40;67.90;;;;;;5029289;28;20440;-58
2022/11/29 04:58:57;;;;;;;13.90;12.30;;;13.50;67.90;;;;;;5024290;28;20459;-58
2022/11/29 05:01:28;;;;;;;13.83;12.30;;;13.50;68.00;;;;;;5029243;28;20846;-58
2022/11/29 05:04:13;;;;;;;14.13;12.77;;;13.50;68.00;;;;;;5023077;28;20498;-57
2022/11/29 05:06:54;;;;;;;12.83;11.30;;;13.50;68.10;;;;;;5034470;28;20487;-58
2022/11/29 05:10:04;;;;;;;12.70;11.40;;;13.50;68.10;;;;;;5028007;28;20542;-57
2022/11/29 05:12:41;;;;;;;15.27;12.47;;;13.50;68.30;;;;;;4991982;28;20451;-58
2022/11/29 05:15:24;;;;;;;13.53;11.40;;;13.50;68.40;;;;;;5025543;28;20444;-58
2022/11/29 05:18:04;;;;;;;13.73;12.20;;;13.50;68.70;;;;;;5022272;28;20439;-58
2022/11/29 05:20:45;;;;;;;13.57;12.13;;;13.50;68.70;;;;;;5030304;28;20443;-57
2022/11/29 05:23:25;;;;;;;15.43;11.80;;;13.50;68.60;;;;;;5025230;28;20510;-57
2022/11/29 05:26:15;;;;;;;13.90;12.17;;;13.50;68.70;;;;;;5029444;28;20447;-57
2022/11/29 05:29:06;;;;;;;13.93;11.30;;;13.60;68.80;;;;;;5031931;28;20810;-58
2022/11/29 05:31:54;;;;;;;12.60;11.30;;;13.60;68.70;;;;;;5021415;28;20582;-57
2022/11/29 05:34:32;;;;;;;13.20;10.63;;;13.60;68.60;;;;;;5030799;28;20440;-58
2022/11/29 05:37:13;;;;;;;19.03;12.17;;;13.60;68.60;;;;;;5029349;28;20447;-58
2022/11/29 05:39:51;;;;;;;11.10;9.70;;;13.60;68.70;;;;;;5031201;28;20444;-57
2022/11/29 05:42:19;;;;;;;11.47;10.37;;;13.60;68.60;;;;;;5050662;28;20771;-57
2022/11/29 05:44:57;;;;;;;13.20;11.53;;;13.60;68.50;;;;;;5050390;28;20462;-58
2022/11/29 05:47:41;;;;;;;14.73;12.23;;;13.70;68.50;;;;;;5037716;28;20479;-58
2022/11/29 05:50:26;;;;;;;12.13;9.40;;;13.70;68.40;;;;;;5032499;28;20482;-58
2022/11/29 05:53:10;;;;;;;11.63;9.97;;;13.70;68.40;;;;;;5041484;28;20805;-58
2022/11/29 05:55:58;;;;;;;13.47;10.90;;;13.70;68.40;;;;;;5033381;28;20488;-57
2022/11/29 05:58:46;;;;;;;13.87;10.70;;;13.70;68.40;;;;;;5022587;28;20474;-57
2022/11/29 06:01:26;;;;;;;10.43;9.30;;;13.70;68.50;;;;;;5028625;28;20451;-57
2022/11/29 06:04:03;;;;;;;9.90;8.17;;;13.70;68.60;;;;;;5029510;28;20794;-57
2022/11/29 06:06:45;;;;;;;9.73;8.73;;;13.70;68.50;;;;;;5027780;28;20511;-57
2022/11/29 06:09:40;;;;;;;8.67;7.80;;;13.70;68.70;;;;;;5025919;28;20472;-56
2022/11/29 06:12:15;;;;;;;9.20;8.10;;;13.70;68.90;;;;;;5024117;28;20513;-57
2022/11/29 06:15:02;;;;;;;7.90;7.10;;;13.70;69.10;;;;;;5015959;28;21638;-57
2022/11/29 06:17:39;;;;;;;9.30;7.60;;;13.70;69.10;;;;;;5027823;28;20455;-57
2022/11/29 06:20:24;;;;;;;9.20;8.30;;;13.70;69.10;;;;;;5023303;28;20479;-57
2022/11/29 06:23:11;;;;;;;9.13;8.03;;;13.70;69.00;;;;;;5012605;28;20811;-57
2022/11/29 06:26:09;;;;;;;14.20;9.00;;;13.70;69.20;;;;;;5028429;28;20444;-58
2022/11/29 06:28:41;;;;;;;8.93;7.87;;;13.60;69.50;;;;;;5029893;28;20531;-58
2022/11/29 06:31:23;;;;;;;10.10;8.97;;;13.70;69.80;;;;;;5030790;28;20451;-58
2022/11/29 06:34:00;;;;;;;10.90;9.53;;;13.90;69.70;;;;;;5030335;28;20979;-58
2022/11/29 06:36:34;;;;;;;12.57;10.03;;;14.00;69.30;;;;;;5029825;28;20447;-58
2022/11/29 06:39:01;;;;;;;27.90;17.43;;;14.10;69.20;;;;;;5039624;28;20499;-58
2022/11/29 06:41:27;;;;;;;14.20;11.40;;;14.20;69.30;;;;;;5034230;28;20435;-58
2022/11/29 06:43:52;;;;;;;12.13;10.03;;;14.40;68.70;;;;;;5041143;28;20508;-58
2022/11/29 06:46:49;;;;;;;12.70;11.40;;;14.50;68.00;;;;;;5031524;28;20487;-58
2022/11/29 06:49:29;;;;;;;13.30;10.53;;;14.50;67.50;;;;;;5027160;28;20543;-58
2022/11/29 06:52:19;;;;;;;16.70;11.33;;;14.60;67.30;;;;;;5032279;28;20477;-58
2022/11/29 06:54:53;;;;;;;12.27;9.80;;;14.70;66.90;;;;;;5031022;28;20488;-58
2022/11/29 06:57:43;;;;;;;12.37;11.07;;;14.70;66.60;;;;;;5030837;28;20439;-58
2022/11/29 07:00:19;;;;;;;13.47;10.90;;;14.80;66.30;;;;;;5026015;28;20444;-58
2022/11/29 07:03:23;;;;;;;11.50;10.17;;;14.80;65.70;;;;;;5027947;28;20455;-58
2022/11/29 07:05:49;;;;;;;11.37;9.07;;;14.90;65.40;;;;;;5030049;28;20439;-58
2022/11/29 07:08:17;;;;;;;12.03;10.00;;;14.90;65.40;;;;;;5031684;28;20454;-58
2022/11/29 07:10:45;;;;;;;13.17;11.20;;;15.00;65.40;;;;;;5029703;28;20428;-58
2022/11/29 07:13:12;;;;;;;13.27;11.30;;;15.00;64.90;;;;;;5030187;28;20448;-58
2022/11/29 07:16:05;;;;;;;11.90;8.90;;;15.10;64.50;;;;;;5028785;28;20440;-58
2022/11/29 07:18:40;;;;;;;9.17;8.23;;;15.10;64.00;;;;;;5029173;28;20463;-58
2022/11/29 07:21:06;;;;;;;9.30;7.80;;;15.10;63.60;;;;;;5021337;28;20985;-58
2022/11/29 07:24:03;;;;;;;8.57;7.77;;;15.00;63.50;;;;;;5025254;28;20459;-58
2022/11/29 07:27:16;;;;;;;7.20;6.50;;;15.00;63.90;;;;;;4990767;28;20225;-58
2022/11/29 07:30:26;;;;;;;8.10;7.30;;;15.00;64.20;;;;;;5004901;28;20459;-58
2022/11/29 07:33:03;;;;;;;7.40;6.70;;;15.00;64.10;;;;;;4989513;28;20453;-58
2022/11/29 07:35:44;;;;;;;6.27;5.67;;;15.10;64.00;;;;;;4987041;28;20472;-58
2022/11/29 07:38:13;;;;;;;8.70;6.83;;;15.10;63.80;;;;;;5017186;28;20542;-58
2022/11/29 07:41:04;;;;;;;7.03;6.33;;;15.10;63.80;;;;;;5027434;28;20883;-58
2022/11/29 07:43:53;;;;;;;9.50;7.27;;;15.10;63.70;;;;;;5026843;28;20893;-58
2022/11/29 07:46:18;;;;;;;11.67;7.93;;;15.10;63.50;;;;;;5017367;28;20587;-59
2022/11/29 07:48:44;;;;;;;7.47;5.70;;;15.10;63.50;;;;;;5031807;28;20582;-58
2022/11/29 07:51:09;;;;;;;5.33;4.83;;;15.20;63.40;;;;;;5026193;28;20220;-58
2022/11/29 07:53:41;;;;;;;6.50;6.00;;;15.20;63.20;;;;;;5024791;28;20250;-58
2022/11/29 07:56:08;;;;;;;6.80;5.83;;;15.20;63.10;;;;;;5029151;28;20219;-58
2022/11/29 07:58:34;;;;;;;5.37;4.90;;;15.10;62.80;;;;;;5030021;28;20440;-58
2022/11/29 08:01:00;;;;;;;5.10;4.63;;;15.10;62.90;;;;;;5029132;28;20534;-57
2022/11/29 08:03:26;;;;;;;5.40;5.00;;;15.00;63.00;;;;;;5027579;28;20475;-57
2022/11/29 08:05:52;;;;;;;5.10;4.60;;;14.80;63.30;;;;;;5030174;28;20467;-57
2022/11/29 08:08:17;;;;;;;5.60;5.10;;;14.80;63.80;;;;;;5029996;28;20193;-58
2022/11/29 08:10:43;;;;;;;4.90;4.40;;;14.70;64.10;;;;;;5030736;28;20652;-57
2022/11/29 08:13:09;;;;;;;6.40;5.80;;;14.60;64.60;;;;;;5029160;28;20192;-57
2022/11/29 08:15:34;;;;;;;5.50;4.87;;;14.60;64.80;;;;;;5029563;28;20193;-57
2022/11/29 08:18:01;;;;;;;5.70;5.10;;;14.50;65.10;;;;;;5030380;28;20186;-57
2022/11/29 08:20:27;;;;;;;7.10;5.67;;;14.50;65.40;;;;;;5031286;28;20548;-57
2022/11/29 08:22:57;;;;;;;7.27;5.47;;;14.40;65.70;;;;;;5028424;28;20439;-57
2022/11/29 08:25:23;;;;;;;8.27;7.40;;;14.40;65.90;;;;;;5026819;28;20220;-57
2022/11/29 08:27:50;;;;;;;9.33;6.93;;;14.40;66.10;;;;;;5032115;28;20487;-57
2022/11/29 08:30:21;;;;;;;9.60;7.13;;;14.30;66.20;;;;;;5024708;28;20480;-58
2022/11/29 08:32:48;;;;;;;7.97;6.83;;;14.30;66.50;;;;;;5029480;28;20448;-57
2022/11/29 08:35:14;;;;;;;11.27;7.63;;;14.30;66.80;;;;;;5028712;28;20498;-57
2022/11/29 08:37:40;;;;;;;12.13;8.67;;;14.30;66.90;;;;;;5029834;28;20439;-57
2022/11/29 08:40:06;;;;;;;12.40;9.50;;;14.30;67.00;;;;;;5029293;28;20440;-58
2022/11/29 08:42:31;;;;;;;10.60;7.70;;;14.20;67.20;;;;;;5030514;28;20186;-57
2022/11/29 08:44:57;;;;;;;12.10;8.47;;;14.20;67.60;;;;;;5029591;28;20435;-57
2022/11/29 08:47:34;;;;;;;12.40;9.33;;;14.20;67.80;;;;;;5037455;28;20248;-58
2022/11/29 08:50:01;;;;;;;16.10;9.50;;;14.20;67.70;;;;;;5032433;28;20192;-57
2022/11/29 08:55:41;;;;;;;11.43;8.13;;;14.20;67.40;;;;;;4924233;29;20504;-57
2022/11/29 08:58:13;;;;;;;11.90;9.27;;;14.20;67.70;;;;;;4932351;29;20484;-57
2022/11/29 09:00:39;;;;;;;12.83;8.80;;;14.20;67.80;;;;;;4982157;28;20534;-57
2022/11/29 09:05:50;;;;;;;9.83;8.53;;;14.20;67.70;;;;;;5026712;28;20451;-57
2022/11/29 09:08:16;;;;;;;9.30;8.30;;;14.20;67.80;;;;;;5035504;28;20894;-57
2022/11/29 09:10:41;;;;;;;9.83;8.27;;;14.20;67.60;;;;;;5026772;28;20452;-57
2022/11/29 09:13:08;;;;;;;13.83;9.40;;;14.20;67.50;;;;;;5023769;28;20194;-57
2022/11/29 09:15:36;;;;;;;10.93;8.70;;;14.20;67.80;;;;;;5035808;28;20196;-57
2022/11/29 09:18:04;;;;;;;13.27;7.97;;;14.20;67.90;;;;;;5021887;28;20455;-57
2022/11/29 09:20:29;;;;;;;10.37;8.80;;;14.20;68.00;;;;;;5029168;28;20436;-57
2022/11/29 09:22:57;;;;;;;11.00;8.27;;;14.30;68.20;;;;;;5032261;28;20463;-57
2022/11/29 09:25:23;;;;;;;8.50;7.60;;;14.30;68.00;;;;;;5025106;28;20633;-57
2022/11/29 09:27:48;;;;;;;8.90;7.50;;;14.30;68.00;;;;;;5026931;28;20487;-57
2022/11/29 09:30:17;;;;;;;9.53;7.80;;;14.30;68.00;;;;;;5025758;28;20720;-57
2022/11/29 09:32:44;;;;;;;8.60;7.67;;;14.30;67.50;;;;;;5029090;28;20573;-57
2022/11/29 09:35:11;;;;;;;9.40;8.43;;;14.30;67.60;;;;;;5026118;28;20815;-57
2022/11/29 09:37:40;;;;;;;8.37;7.03;;;14.30;67.70;;;;;;5026867;28;20505;-57
2022/11/29 09:40:06;;;;;;;7.90;6.90;;;14.40;67.60;;;;;;5026018;28;20439;-57
2022/11/29 09:43:04;;;;;;;9.40;8.00;;;14.40;67.50;;;;;;5030749;28;20440;-57
2022/11/29 09:45:36;;;;;;;8.73;7.60;;;14.40;67.80;;;;;;5023078;28;21029;-57
2022/11/29 09:48:26;;;;;;;8.40;7.00;;;14.30;67.70;;;;;;5027919;28;20885;-57
2022/11/29 09:51:23;;;;;;;7.70;6.53;;;14.40;67.40;;;;;;5021042;28;20452;-57
2022/11/29 09:54:28;;;;;;;8.87;7.10;;;14.30;67.20;;;;;;4991642;28;20557;-58
2022/11/29 09:56:55;;;;;;;7.20;6.50;;;14.40;67.40;;;;;;5025471;28;20432;-57
2022/11/29 09:59:32;;;;;;;8.03;7.23;;;14.40;67.40;;;;;;5029381;28;20440;-57
2022/11/29 10:02:13;;;;;;;7.33;6.30;;;14.40;67.50;;;;;;5029776;28;20455;-57
2022/11/29 10:04:42;;;;;;;7.10;6.40;;;14.40;67.40;;;;;;5032229;28;20957;-57
2022/11/29 10:07:13;;;;;;;7.53;6.83;;;14.50;67.40;;;;;;5033119;28;20487;-57
2022/11/29 10:09:50;;;;;;;7.50;6.80;;;14.50;67.30;;;;;;5037402;28;20447;-57
2022/11/29 10:12:25;;;;;;;7.00;6.40;;;14.50;67.10;;;;;;5030854;28;20462;-57
2022/11/29 10:15:12;;;;;;;7.30;6.60;;;14.50;67.00;;;;;;5030075;28;20528;-57
2022/11/29 10:17:53;;;;;;;6.30;5.80;;;14.50;66.80;;;;;;5028985;28;20955;-57
2022/11/29 10:20:25;;;;;;;7.57;6.87;;;14.40;66.60;;;;;;5031623;28;20448;-57
2022/11/29 10:22:57;;;;;;;6.83;6.13;;;14.40;66.60;;;;;;5034223;28;20439;-58
2022/11/29 10:25:34;;;;;;;8.33;7.53;;;14.40;66.80;;;;;;5031580;28;20941;-58
2022/11/29 10:28:02;;;;;;;8.20;7.40;;;14.40;66.70;;;;;;5018671;28;20491;-57
2022/11/29 10:30:30;;;;;;;7.10;6.40;;;14.40;66.60;;;;;;5028542;28;20833;-58
2022/11/29 10:32:59;;;;;;;7.53;6.83;;;14.40;66.80;;;;;;5018277;28;20481;-58
2022/11/29 10:35:25;;;;;;;8.10;7.30;;;14.40;66.70;;;;;;5029729;28;20451;-57
2022/11/29 10:37:55;;;;;;;7.73;7.03;;;14.50;66.80;;;;;;5032188;28;20497;-57
2022/11/29 10:40:28;;;;;;;7.93;7.20;;;14.40;66.90;;;;;;5026088;28;20883;-57
2022/11/29 10:42:54;;;;;;;8.97;8.07;;;14.50;67.10;;;;;;5021673;28;20455;-58
2022/11/29 10:45:46;;;;;;;8.07;7.27;;;14.50;67.00;;;;;;5017175;28;20452;-58
2022/11/29 10:48:15;;;;;;;7.97;7.27;;;14.50;66.90;;;;;;5021299;28;20216;-58
2022/11/29 10:50:45;;;;;;;7.33;6.73;;;14.40;66.60;;;;;;5027881;28;20540;-58
2022/11/29 10:53:29;;;;;;;8.10;7.40;;;14.40;66.90;;;;;;5028298;28;20533;-58
2022/11/29 10:56:21;;;;;;;8.00;7.27;;;14.40;66.60;;;;;;5027140;28;20458;-58
2022/11/29 10:59:02;;;;;;;8.70;7.43;;;14.50;66.60;;;;;;5030878;28;20448;-58
2022/11/29 11:01:30;;;;;;;9.67;8.77;;;14.50;66.40;;;;;;5034403;28;20489;-59
2022/11/29 11:03:58;;;;;;;9.27;8.23;;;14.40;66.40;;;;;;5029580;28;20440;-58
2022/11/29 11:06:26;;;;;;;8.80;7.90;;;14.40;66.40;;;;;;5039000;28;20954;-58
2022/11/29 11:09:11;;;;;;;9.73;8.83;;;14.40;66.40;;;;;;5025854;28;20506;-58
2022/11/29 11:11:38;;;;;;;8.67;7.87;;;14.30;66.10;;;;;;5034452;28;20498;-58
2022/11/29 11:14:15;;;;;;;9.70;8.70;;;14.30;66.40;;;;;;5031808;28;20448;-59
2022/11/29 11:16:41;;;;;;;9.30;8.40;;;14.20;66.10;;;;;;5029489;28;20444;-58
2022/11/29 11:19:52;;;;;;;9.10;8.20;;;14.20;66.10;;;;;;5037685;28;20522;-58
2022/11/29 11:22:22;;;;;;;9.63;8.73;;;14.30;66.20;;;;;;4934952;29;20204;-58
2022/11/29 11:24:59;;;;;;;8.53;7.77;;;14.30;66.20;;;;;;5019138;28;20450;-58
2022/11/29 11:27:30;;;;;;;8.73;7.93;;;14.20;66.20;;;;;;5025391;28;20488;-58
2022/11/29 11:29:56;;;;;;;10.30;9.40;;;14.20;66.80;;;;;;5028212;28;20489;-58
2022/11/29 11:32:22;;;;;;;9.43;8.40;;;14.10;67.10;;;;;;5030198;28;21291;-58
2022/11/29 11:34:53;;;;;;;11.33;8.10;;;14.10;67.10;;;;;;5024705;28;20538;-58
2022/11/29 11:37:25;;;;;;;10.83;9.80;;;14.10;67.10;;;;;;5027913;28;20567;-58
2022/11/29 11:39:54;;;;;;;9.90;9.03;;;14.20;66.90;;;;;;5026230;28;20451;-57
2022/11/29 11:42:36;;;;;;;10.80;9.70;;;14.30;67.00;;;;;;5027577;28;20889;-58
2022/11/29 11:45:10;;;;;;;9.70;8.70;;;14.30;67.30;;;;;;5039706;28;20477;-57
2022/11/29 11:48:01;;;;;;;9.60;7.63;;;14.20;67.20;;;;;;5030848;28;20487;-58
2022/11/29 11:50:41;;;;;;;10.00;9.00;;;14.20;67.30;;;;;;5031025;28;20440;-57
2022/11/29 11:53:25;;;;;;;8.27;7.47;;;14.20;67.10;;;;;;5030878;28;20471;-58
2022/11/29 11:56:01;;;;;;;9.73;8.20;;;14.20;67.20;;;;;;5030146;28;20447;-57
2022/11/29 11:58:31;;;;;;;8.87;8.07;;;14.20;67.60;;;;;;5026223;28;20521;-57
2022/11/29 12:01:18;;;;;;;9.00;8.20;;;14.20;67.30;;;;;;5028518;28;20758;-57
2022/11/29 12:04:02;;;;;;;9.40;8.50;;;14.30;67.00;;;;;;5023645;28;20455;-57
2022/11/29 12:06:42;;;;;;;8.03;7.33;;;14.40;66.90;;;;;;5032341;28;20510;-58
2022/11/29 12:09:12;;;;;;;8.17;7.37;;;14.40;66.80;;;;;;5027551;28;21135;-57
2022/11/29 12:11:47;;;;;;;8.07;7.27;;;14.40;66.90;;;;;;5028346;28;20444;-57
2022/11/29 12:14:31;;;;;;;8.40;7.60;;;14.40;66.70;;;;;;5029756;28;20554;-57
2022/11/29 12:17:05;;;;;;;7.67;6.97;;;14.40;66.60;;;;;;5022907;28;21313;-57
2022/11/29 12:19:39;;;;;;;8.00;7.20;;;14.40;66.20;;;;;;5029648;28;20451;-57
2022/11/29 12:22:12;;;;;;;7.30;6.70;;;14.40;66.10;;;;;;5024125;28;20526;-57
2022/11/29 12:24:43;;;;;;;7.70;6.93;;;14.40;65.90;;;;;;5026262;28;20432;-57
2022/11/29 12:27:13;;;;;;;9.07;8.20;;;14.40;66.10;;;;;;5033489;28;20486;-57
2022/11/29 12:29:38;;;;;;;10.73;9.63;;;14.40;66.20;;;;;;5029565;28;20443;-57
2022/11/29 12:32:07;;;;;;;9.97;9.07;;;14.40;66.40;;;;;;5028108;28;20443;-57
2022/11/29 12:34:40;;;;;;;8.67;7.87;;;14.30;66.80;;;;;;5028977;28;20200;-57
2022/11/29 12:37:26;;;;;;;8.50;7.70;;;14.30;67.00;;;;;;5029708;28;20491;-57
2022/11/29 12:40:31;;;;;;;8.13;7.33;;;14.20;67.20;;;;;;5016296;28;20448;-58
2022/11/29 12:43:11;;;;;;;8.30;7.50;;;14.10;67.50;;;;;;5026576;28;20444;-56
2022/11/29 12:46:06;;;;;;;8.00;7.30;;;14.20;67.70;;;;;;5012488;28;20448;-57
2022/11/29 12:48:46;;;;;;;8.87;7.97;;;14.20;67.70;;;;;;5024808;28;20549;-57
2022/11/29 12:51:34;;;;;;;9.00;8.17;;;14.30;67.80;;;;;;5026047;28;20455;-58
2022/11/29 12:54:31;;;;;;;9.53;7.87;;;14.30;67.40;;;;;;5030007;28;20476;-57
2022/11/29 12:57:22;;;;;;;9.17;8.37;;;14.30;67.10;;;;;;5011294;28;20962;-57
2022/11/29 13:00:06;;;;;;;9.60;8.60;;;14.30;67.00;;;;;;5029285;28;20451;-57
2022/11/29 13:02:38;;;;;;;9.80;7.70;;;14.30;67.20;;;;;;5021265;28;20571;-56
2022/11/29 13:05:28;;;;;;;10.33;7.40;;;14.30;67.60;;;;;;5026157;28;20456;-57
2022/11/29 13:08:21;;;;;;;6.80;6.20;;;14.30;67.60;;;;;;5022946;28;20492;-58
2022/11/29 13:11:04;;;;;;;7.70;6.10;;;14.40;67.40;;;;;;5027992;28;20569;-57
2022/11/29 13:13:53;;;;;;;6.47;5.87;;;14.40;67.30;;;;;;5027566;28;20527;-57
2022/11/29 13:17:07;;;;;;;8.67;6.77;;;14.40;67.10;;;;;;5025916;28;20448;-56
2022/11/29 13:19:51;;;;;;;6.30;5.70;;;14.50;66.80;;;;;;5000206;28;20540;-57
2022/11/29 13:22:41;;;;;;;5.63;5.00;;;14.50;66.80;;;;;;5021297;28;20967;-57
2022/11/29 13:25:24;;;;;;;5.83;5.33;;;14.40;66.50;;;;;;5025009;28;20456;-57
2022/11/29 13:28:27;;;;;;;5.50;4.77;;;14.40;66.40;;;;;;5026053;28;20487;-57
2022/11/29 13:31:12;;;;;;;5.00;4.50;;;14.40;66.30;;;;;;4963088;28;20554;-57
2022/11/29 13:33:47;;;;;;;4.63;3.93;;;14.40;65.90;;;;;;5016693;28;20475;-56